Waitakeres Weather Go to January February March April May June
January Summaries Go to July August September October November December
Details 2008 2009 2010 2011 2012 2013 2014 2015 2016 2017
Highest Temperature 28.7C 27.2C 28.0C 28.4C 24.7C 27.4C 26.2C 27.5C 28.7C 25.6C
Lowest Temperature 13.3C 11.5C 9.4C 13.0C 9.2C 9.6C 9.8C 9.9C 10.4C 8.7C
Average Temperature 20.6C 19.3C 18.3C 18.9C 17.0C 18.2C 17.3C 19.0C 19.2C 17.1C
Highest Pressure 1025.0 hPa 1027.0 hPa 1022.0 hPa 1022.5 hPa 1029.4 hPa 1032.3 hPa 1023.5 hPa 1024.7 hPa 1024.6 hPa 1022.0 hPa
Lowest Pressure 1009.0 hPa 1006.0 hPa 997.4 hPa 987.3 hPa 995.8 hPa 1000.2 hPa 989.8 hPa 1006.5 hPa 1003.7 hPa 995.6 hPa
Total Rain 16.7 mm 33.6 mm 66.1 mm 134.6 mm 76.8 mm 19.2 mm 53.0 mm 28.6 mm 146.6 mm 56.8 mm
Most Rain in 24 hrs 4.5 mm 8.8 mm 12.2 mm 36.8 mm 19.0 mm 6.6 mm 22.8 mm 8.6 mm 38.4 mm 12.4 mm
Heaviest Rain     74.8 mm/hr 29.0 mm/hr 153.6 mm/hr 27.8 mm/hr 84.0 mm/hr 83.4 mm/hr 198.6 mm/hr 64.4 mm/hr
Number of Rain Days 6 days 7 days 9 days 10 days 18 days 9 days 15 days 7 days 14 days 14 days
Highest Gust     22.5 km/hr 27.4 km/hr 35.4 km/hr 30.6 km/hr 29.0 km/hr 25.7 km/hr 33.8 km/hr 43.5 km/hr
Highest Average Wind     4.4 km/hr 9.8 km/hr 11.3 km/hr 8.0 km/hr 8.0 km/hr 6.4 km/hr 9.7 km/hr 16.1 km/hr
Highest Windrun     97.3 km 107.2 km 78.2 km 60.5 km 77.5 km 49.4 km 112.7 km 102.8 km
Back to Current Weather Go To Rainfall Data
Tabled Data - scroll down 2017 Temperature Pressure Rain Wind
for earlier years Maximum Minimum Average Maximum Minimum Day Total Maximum Rain Rate High Gust Highest Av Run
C C C hPa hPa mm mm/hr time km/h km/h km
01/01/2017 22.8C 13.1C 18.0C 1014.4 hPa 1011.2 hPa 0.0 mm 0.0 mm/hr 00:00 hrs 17.7 km/hr 3.2 km/hr 11.7 km
02/01/2017 23.2C 15.2C 18.6C 1012.5 hPa 1009.9 hPa 7.6 mm 4.2 mm/hr 13:24 hrs 22.5 km/hr 3.2 km/hr 17.4 km
03/01/2017 21.6C 17.5C 18.8C 1012.3 hPa 1008.8 hPa 6.2 mm 18.4 mm/hr 17:26 hrs 20.9 km/hr 4.8 km/hr 30.5 km
04/01/2017 20.1C 14.1C 16.7C 1014.9 hPa 1009.4 hPa 0.2 mm 0.0 mm/hr 00:00 hrs 19.3 km/hr 4.8 km/hr 32.5 km
05/01/2017 20.0C 9.1C 15.1C 1019.6 hPa 1014.8 hPa 0.0 mm 0.0 mm/hr 00:00 hrs 14.5 km/hr 3.2 km/hr 17.2 km
06/01/2017 21.1C 8.7C 14.5C 1019.7 hPa 1014.4 hPa 0.0 mm 0.0 mm/hr 00:00 hrs 17.7 km/hr 1.6 km/hr 8.3 km
07/01/2017 21.9C 10.8C 15.8C 1015.7 hPa 1011.1 hPa 0.0 mm 0.0 mm/hr 00:00 hrs 14.5 km/hr 3.2 km/hr 13.3 km
08/01/2017 20.3C 13.8C 16.1C 1013.1 hPa 1010.4 hPa 0.0 mm 0.0 mm/hr 00:00 hrs 16.1 km/hr 3.2 km/hr 15.0 km
09/01/2017 22.2C 13.4C 17.2C 1016.5 hPa 1012.3 hPa 0.0 mm 0.0 mm/hr 00:00 hrs 14.5 km/hr 3.2 km/hr 19.3 km
10/01/2017 20.0C 13.4C 17.6C 1017.1 hPa 1014.0 hPa 0.6 mm 0.0 mm/hr 00:00 hrs 9.7 km/hr 1.6 km/hr 2.7 km
11/01/2017 21.4C 16.3C 18.5C 1017.7 hPa 1014.4 hPa 1.2 mm 0.0 mm/hr 00:00 hrs 11.3 km/hr 1.6 km/hr 3.7 km
12/01/2017 23.2C 15.0C 18.8C 1015.6 hPa 1009.0 hPa 0.2 mm 0.0 mm/hr 00:00 hrs 16.1 km/hr 3.2 km/hr 7.9 km
13/01/2017 22.6C 12.1C 18.1C 1012.0 hPa 1007.2 hPa 2.4 mm 8.8 mm/hr 10:18 hrs 20.9 km/hr 3.2 km/hr 22.8 km
14/01/2017 23.5C 11.5C 17.8C 1013.0 hPa 1009.5 hPa 0.0 mm 0.0 mm/hr 00:00 hrs 0.0 km/hr 0.0 km/hr 0.0 km
15/01/2017 22.6C 13.2C 19.0C 1010.8 hPa 1007.0 hPa 4.2 mm 3.2 mm/hr 18:20 hrs 32.2 km/hr 4.8 km/hr 22.3 km
16/01/2017 21.9C 13.0C 17.1C 1016.7 hPa 1010.5 hPa 0.2 mm 0.0 mm/hr 00:00 hrs 20.9 km/hr 4.8 km/hr 27.0 km
17/01/2017 22.4C 12.1C 17.1C 1016.9 hPa 1014.8 hPa 0.0 mm 0.0 mm/hr 00:00 hrs 19.3 km/hr 4.8 km/hr 25.6 km
18/01/2017 22.7C 13.2C 17.4C 1015.0 hPa 1006.3 hPa 0.0 mm 0.0 mm/hr 00:00 hrs 12.9 km/hr 3.2 km/hr 8.7 km
19/01/2017 19.6C 13.1C 16.4C 1006.7 hPa 996.2 hPa 8.0 mm 64.4 mm/hr 09:24 hrs 25.7 km/hr 6.4 km/hr 30.6 km
20/01/2017 20.8C 10.1C 15.9C 1013.6 hPa 1000.0 hPa 0.0 mm 0.0 mm/hr 00:00 hrs 17.7 km/hr 4.8 km/hr 33.3 km
21/01/2017 22.3C 9.7C 15.8C 1014.4 hPa 1000.3 hPa 12.4 mm 12.2 mm/hr 20:29 hrs 43.5 km/hr 16.1 km/hr 102.8 km
22/01/2017 21.9C 14.9C 17.7C 1003.5 hPa 995.6 hPa 7.4 mm 16.8 mm/hr 05:36 hrs 30.6 km/hr 8.0 km/hr 102.7 km
23/01/2017 21.3C 13.7C 16.9C 1015.2 hPa 1003.3 hPa 0.8 mm 0.0 mm/hr 00:00 hrs 24.1 km/hr 6.4 km/hr 92.9 km
24/01/2017 22.1C 12.9C 16.7C 1019.0 hPa 1015.1 hPa 0.0 mm 0.0 mm/hr 00:00 hrs 12.9 km/hr 3.2 km/hr 29.6 km
25/01/2017 21.2C 11.8C 15.9C 1018.3 hPa 1009.0 hPa 5.4 mm 56.4 mm/hr 19:57 hrs 19.3 km/hr 4.8 km/hr 32.3 km
26/01/2017 20.7C 10.9C 15.3C 1015.8 hPa 1012.1 hPa 0.0 mm 0.0 mm/hr 00:00 hrs 14.5 km/hr 4.8 km/hr 40.8 km
27/01/2017 21.8C 11.6C 16.2C 1017.7 hPa 1014.6 hPa 0.0 mm 0.0 mm/hr 00:00 hrs 19.3 km/hr 4.8 km/hr 31.5 km
28/01/2017 23.7C 11.9C 17.6C 1022.0 hPa 1017.3 hPa 0.0 mm 0.0 mm/hr 00:00 hrs 12.9 km/hr 3.2 km/hr 23.2 km
29/01/2017 23.7C 11.4C 16.8C 1021.8 hPa 1019.1 hPa 0.0 mm 0.0 mm/hr 00:00 hrs 12.9 km/hr 3.2 km/hr 16.0 km
30/01/2017 23.6C 11.2C 17.4C 1021.9 hPa 1019.8 hPa 0.0 mm 0.0 mm/hr 00:00 hrs 12.9 km/hr 3.2 km/hr 18.0 km
Back to top 31/01/2017 25.6C 14.1C 18.8C 1022.0 hPa 1018.3 hPa 0.0 mm 0.0 mm/hr 00:00 hrs 11.3 km/hr 3.2 km/hr 10.7 km
Tabled Data - scroll down 2016 Temperature Pressure Rain Wind
for earlier years Maximum Minimum Average Maximum Minimum Day Total Maximum Rain Rate High Gust Highest Av Run
C C C hPa hPa mm mm/hr time km/h km/h km
01/01/2016 18.8C 15.7C 17.2C 1021.1 hPa 1015.8 hPa 22.6 mm 7.6 mm/hr 09:44 hrs 33.8 km/hr 8.0 km/hr 112.7 km
02/01/2016 18.1C 16.0C 17.4C 1016.6 hPa 1008.7 hPa 18.0 mm 8.4 mm/hr 22:44 hrs 32.2 km/hr 9.7 km/hr 93.9 km
03/01/2016 21.7C 17.6C 19.4C 1009.0 hPa 1005.4 hPa 3.0 mm 7.2 mm/hr 04:55 hrs 14.5 km/hr 3.2 km/hr 11.1 km
04/01/2016 23.9C 14.9C 18.6C 1019.6 hPa 1008.6 hPa 1.0 mm 1.2 mm/hr 02:39 hrs 17.7 km/hr 4.8 km/hr 19.9 km
05/01/2016 21.0C 11.8C 16.0C 1023.3 hPa 1019.0 hPa 0.0 mm 0.0 mm/hr 00:00 hrs 19.3 km/hr 3.2 km/hr 15.3 km
06/01/2016 21.6C 10.4C 15.9C 1024.6 hPa 1022.3 hPa 0.0 mm 0.0 mm/hr 00:00 hrs 20.9 km/hr 4.8 km/hr 37.3 km
07/01/2016 21.9C 14.6C 17.6C 1024.1 hPa 1016.6 hPa 0.0 mm 0.0 mm/hr 00:00 hrs 20.9 km/hr 6.4 km/hr 39.7 km
08/01/2016 22.4C 15.2C 19.0C 1016.6 hPa 1003.7 hPa 38.4 mm 72.0 mm/hr 12:10 hrs 29.0 km/hr 4.8 km/hr 13.1 km
09/01/2016 21.7C 14.4C 18.3C 1011.8 hPa 1004.9 hPa 4.8 mm 14.6 mm/hr 04:31 hrs 16.1 km/hr 3.2 km/hr 10.9 km
10/01/2016 23.3C 14.4C 17.6C 1015.2 hPa 1010.3 hPa 0.2 mm 0.0 mm/hr 00:00 hrs 17.7 km/hr 3.2 km/hr 10.6 km
11/01/2016 23.0C 14.1C 18.3C 1019.1 hPa 1015.1 hPa 0.0 mm 0.0 mm/hr 00:00 hrs 11.3 km/hr 1.6 km/hr 4.1 km
12/01/2016 21.9C 12.9C 17.7C 1019.6 hPa 1014.6 hPa 7.4 mm 11.2 mm/hr 13:15 hrs 8.0 km/hr 0.0 km/hr 0.0 km
13/01/2016 22.9C 11.3C 17.0C 1018.5 hPa 1014.9 hPa 0.0 mm 0.0 mm/hr 00:00 hrs 14.5 km/hr 3.2 km/hr 14.2 km
14/01/2016 24.2C 13.9C 18.3C 1023.5 hPa 1017.9 hPa 0.0 mm 0.0 mm/hr 00:00 hrs 14.5 km/hr 3.2 km/hr 12.2 km
15/01/2016 24.7C 13.0C 18.4C 1023.2 hPa 1017.3 hPa 0.0 mm 0.0 mm/hr 00:00 hrs 17.7 km/hr 3.2 km/hr 5.7 km
16/01/2016 27.0C 13.4C 20.0C 1019.8 hPa 1015.2 hPa 0.0 mm 0.0 mm/hr 00:00 hrs 9.7 km/hr 3.2 km/hr 5.9 km
17/01/2016 26.1C 17.7C 21.1C 1016.8 hPa 1012.1 hPa 0.0 mm 0.0 mm/hr 00:00 hrs 27.4 km/hr 8.0 km/hr 45.7 km
18/01/2016 23.0C 17.9C 20.4C 1012.8 hPa 1008.6 hPa 17.6 mm 198.6 mm/hr 21:03 hrs 30.6 km/hr 8.0 km/hr 68.7 km
19/01/2016 23.9C 14.9C 18.8C 1016.3 hPa 1011.2 hPa 0.4 mm 0.0 mm/hr 00:00 hrs 19.3 km/hr 4.8 km/hr 8.3 km
20/01/2016 24.3C 14.7C 19.0C 1019.8 hPa 1015.5 hPa 0.0 mm 0.0 mm/hr 00:00 hrs 11.3 km/hr 1.6 km/hr 0.5 km
21/01/2016 26.0C 15.1C 20.1C 1021.4 hPa 1018.8 hPa 0.0 mm 0.0 mm/hr 00:00 hrs 11.3 km/hr 1.6 km/hr 0.6 km
22/01/2016 26.1C 14.6C 19.7C 1021.2 hPa 1017.8 hPa 0.0 mm 0.0 mm/hr 00:00 hrs 8.0 km/hr 1.6 km/hr 0.2 km
23/01/2016 27.4C 13.2C 19.8C 1020.1 hPa 1015.4 hPa 0.0 mm 0.0 mm/hr 00:00 hrs 9.7 km/hr 1.6 km/hr 0.7 km
24/01/2016 28.7C 14.4C 21.1C 1017.4 hPa 1014.9 hPa 0.0 mm 0.0 mm/hr 00:00 hrs 11.3 km/hr 1.6 km/hr 1.5 km
25/01/2016 28.3C 16.0C 21.2C 1017.4 hPa 1014.8 hPa 0.0 mm 0.0 mm/hr 00:00 hrs 12.9 km/hr 3.2 km/hr 8.5 km
26/01/2016 28.4C 16.4C 21.6C 1017.1 hPa 1013.2 hPa 0.0 mm 0.0 mm/hr 00:00 hrs 11.3 km/hr 1.6 km/hr 5.3 km
27/01/2016 27.4C 18.9C 21.8C 1014.6 hPa 1008.5 hPa 25.8 mm 164.6 mm/hr 20:24 hrs 1.6 km/hr 0.0 km/hr 0.0 km
28/01/2016 25.7C 17.4C 20.8C 1009.8 hPa 1007.2 hPa 0.8 mm 0.8 mm/hr 23:11 hrs 14.5 km/hr 1.6 km/hr 3.4 km
29/01/2016 25.2C 16.7C 20.6C 1017.7 hPa 1009.8 hPa 1.8 mm 14.6 mm/hr 03:24 hrs 12.9 km/hr 1.6 km/hr 5.5 km
30/01/2016 27.3C 16.7C 21.2C 1018.1 hPa 1015.1 hPa 0.0 mm 0.0 mm/hr 00:00 hrs 9.7 km/hr 1.6 km/hr 3.4 km
Back to top 31/01/2016 27.4C 16.7C 20.9C 1019.8 hPa 1015.9 hPa 4.8 mm 37.2 mm/hr 13:47 hrs 14.5 km/hr 3.2 km/hr 9.2 km
Tabled Data - scroll down 2015 Temperature Pressure Rain Wind
for earlier years Maximum Minimum Average Maximum Minimum Day Total Maximum Rain Rate High Gust Highest Av Run
C C C hPa hPa mm mm/hr time km/h km/h km
01/01/2015 22.7C 10.7C 17.4C 1020.2 hPa 1012.2 hPa 4.8 mm 10.2 mm/hr 01:29 hrs 19.3 km/hr 3.2 km/hr 27.7 km
02/01/2015 22.9C 9.9C 16.0C 1023.2 hPa 1019.6 hPa 0.0 mm 0.0 mm/hr 00:00 hrs 12.9 km/hr 3.2 km/hr 15.9 km
03/01/2015 21.9C 11.1C 16.5C 1024.6 hPa 1021.9 hPa 0.0 mm 0.0 mm/hr 00:00 hrs 11.3 km/hr 3.2 km/hr 11.3 km
04/01/2015 25.2C 13.2C 18.8C 1024.7 hPa 1021.3 hPa 0.0 mm 0.0 mm/hr 00:00 hrs 12.9 km/hr 3.2 km/hr 12.4 km
05/01/2015 24.6C 13.6C 18.6C 1023.1 hPa 1020.0 hPa 0.0 mm 0.0 mm/hr 00:00 hrs 12.9 km/hr 3.2 km/hr 11.9 km
06/01/2015 24.2C 12.4C 18.1C 1022.0 hPa 1019.1 hPa 0.0 mm 0.0 mm/hr 00:00 hrs 12.9 km/hr 3.2 km/hr 13.4 km
07/01/2015 24.4C 13.0C 18.0C 1020.6 hPa 1016.6 hPa 0.0 mm 0.0 mm/hr 00:00 hrs 11.3 km/hr 3.2 km/hr 15.5 km
08/01/2015 24.9C 11.6C 18.2C 1021.8 hPa 1017.5 hPa 0.0 mm 0.0 mm/hr 00:00 hrs 19.3 km/hr 4.8 km/hr 27.2 km
09/01/2015 23.8C 13.7C 18.1C 1023.5 hPa 1021.2 hPa 0.8 mm 3.4 mm/hr 17:42 hrs 12.9 km/hr 4.8 km/hr 8.9 km
10/01/2015 25.7C 13.7C 19.2C 1023.6 hPa 1019.2 hPa 0.0 mm 0.0 mm/hr 00:00 hrs 12.9 km/hr 3.2 km/hr 18.2 km
11/01/2015 24.4C 14.2C 18.6C 1020.1 hPa 1015.4 hPa 0.0 mm 0.0 mm/hr 00:00 hrs 12.9 km/hr 3.2 km/hr 21.9 km
12/01/2015 25.4C 13.9C 19.4C 1016.7 hPa 1014.6 hPa 0.0 mm 0.0 mm/hr 00:00 hrs 17.7 km/hr 3.2 km/hr 23.1 km
13/01/2015 25.2C 14.1C 19.9C 1015.8 hPa 1012.8 hPa 0.0 mm 0.0 mm/hr 00:00 hrs 12.9 km/hr 3.2 km/hr 21.4 km
14/01/2015 24.0C 12.2C 17.5C 1014.2 hPa 1010.2 hPa 0.0 mm 0.0 mm/hr 00:00 hrs 12.9 km/hr 1.6 km/hr 10.8 km
15/01/2015 26.2C 12.7C 19.1C 1011.4 hPa 1007.5 hPa 0.0 mm 0.0 mm/hr 00:00 hrs 11.3 km/hr 3.2 km/hr 14.1 km
16/01/2015 25.6C 14.7C 19.7C 1010.3 hPa 1007.7 hPa 0.0 mm 0.0 mm/hr 00:00 hrs 16.1 km/hr 4.8 km/hr 14.6 km
17/01/2015 24.4C 16.7C 19.8C 1009.0 hPa 1006.6 hPa 8.6 mm 10.4 mm/hr 19:15 hrs 14.5 km/hr 4.8 km/hr 15.4 km
18/01/2015 24.4C 13.7C 19.4C 1009.0 hPa 1006.5 hPa 0.4 mm 0.0 mm/hr 00:00 hrs 12.9 km/hr 3.2 km/hr 15.2 km
19/01/2015 25.7C 16.0C 20.3C 1012.9 hPa 1006.7 hPa 0.8 mm 13.8 mm/hr 02:59 hrs 12.9 km/hr 3.2 km/hr 11.3 km
20/01/2015 25.8C 14.9C 19.6C 1018.4 hPa 1012.4 hPa 0.0 mm 0.0 mm/hr 00:00 hrs 12.9 km/hr 3.2 km/hr 15.7 km
21/01/2015 23.8C 13.0C 18.2C 1020.4 hPa 1017.8 hPa 0.0 mm 0.0 mm/hr 00:00 hrs 12.9 km/hr 3.2 km/hr 17.6 km
22/01/2015 24.4C 12.6C 18.1C 1022.1 hPa 1018.1 hPa 0.0 mm 0.0 mm/hr 00:00 hrs 24.1 km/hr 6.4 km/hr 43.9 km
23/01/2015 25.3C 13.2C 18.8C 1022.1 hPa 1019.5 hPa 0.0 mm 0.0 mm/hr 00:00 hrs 16.1 km/hr 4.8 km/hr 14.2 km
24/01/2015 27.3C 14.8C 20.1C 1022.4 hPa 1020.1 hPa 0.0 mm 0.0 mm/hr 00:00 hrs 12.9 km/hr 3.2 km/hr 13.0 km
25/01/2015 27.1C 14.4C 20.0C 1022.5 hPa 1018.3 hPa 0.0 mm 0.0 mm/hr 00:00 hrs 12.9 km/hr 3.2 km/hr 16.3 km
26/01/2015 25.1C 14.5C 19.1C 1020.4 hPa 1012.9 hPa 0.0 mm 0.0 mm/hr 00:00 hrs 12.9 km/hr 4.8 km/hr 21.5 km
27/01/2015 27.1C 15.2C 20.4C 1014.1 hPa 1007.8 hPa 0.0 mm 0.0 mm/hr 00:00 hrs 19.3 km/hr 4.8 km/hr 11.0 km
28/01/2015 26.2C 15.9C 19.9C 1010.7 hPa 1008.3 hPa 8.4 mm 83.4 mm/hr 14:03 hrs 16.1 km/hr 4.8 km/hr 16.7 km
29/01/2015 27.5C 15.5C 21.2C 1011.9 hPa 1009.3 hPa 0.0 mm 0.0 mm/hr 00:00 hrs 22.5 km/hr 6.4 km/hr 49.4 km
30/01/2015 26.4C 17.1C 21.4C 1013.0 hPa 1010.0 hPa 0.0 mm 0.0 mm/hr 00:00 hrs 25.7 km/hr 6.4 km/hr 46.1 km
Back to top 31/01/2015 22.2C 18.5C 19.9C 1014.8 hPa 1011.6 hPa 4.8 mm 5.8 mm/hr 09:55 hrs 11.3 km/hr 1.6 km/hr 5.5 km
Tabled Data - scroll down 2014 Temperature Pressure Rain Wind
for earlier years Maximum Minimum Average Maximum Minimum Day Total Maximum Rain Rate High Gust Highest Av Run
C C C hPa hPa mm mm/hr time km/h km/h km
01/01/2014 23.0C 10.0C 16.0C 1015.1 hPa 1012.7 hPa 1.6 mm 13.6 mm/hr 10:11 hrs 19.3 km/hr 3.2 km/hr 13.9 km
02/01/2014 23.6C 12.3C 17.6C 1015.7 hPa 1012.7 hPa 0.4 mm 0.0 mm/hr 00:00 hrs 14.5 km/hr 3.2 km/hr 14.2 km
03/01/2014 24.3C 12.8C 19.3C 1013.2 hPa 1007.2 hPa 0.0 mm 0.0 mm/hr 00:00 hrs 29.0 km/hr 8.0 km/hr 61.4 km
04/01/2014 25.4C 19.2C 21.1C 1009.2 hPa 1006.8 hPa 0.0 mm 0.0 mm/hr 00:00 hrs 17.7 km/hr 4.8 km/hr 44.3 km
05/01/2014 22.6C 12.5C 18.6C 1011.0 hPa 1004.1 hPa 3.6 mm 15.8 mm/hr 13:09 hrs 22.5 km/hr 6.4 km/hr 44.4 km
06/01/2014 22.7C 11.2C 16.5C 1013.0 hPa 1010.5 hPa 0.0 mm 0.0 mm/hr 00:00 hrs 12.9 km/hr 4.8 km/hr 22.9 km
07/01/2014 26.2C 10.9C 18.2C 1012.7 hPa 1006.0 hPa 0.8 mm 4.4 mm/hr 19:57 hrs 19.3 km/hr 4.8 km/hr 32.0 km
08/01/2014 23.2C 14.1C 18.2C 1008.0 hPa 1005.9 hPa 0.2 mm 0.0 mm/hr 00:00 hrs 17.7 km/hr 4.8 km/hr 31.1 km
09/01/2014 20.4C 12.0C 16.1C 1015.4 hPa 1006.9 hPa 2.4 mm 34.2 mm/hr 12:29 hrs 19.3 km/hr 4.8 km/hr 25.7 km
10/01/2014 22.9C 10.7C 16.1C 1018.8 hPa 1015.0 hPa 0.0 mm 0.0 mm/hr 00:00 hrs 12.9 km/hr 3.2 km/hr 21.1 km
11/01/2014 22.3C 11.9C 16.6C 1019.3 hPa 1017.2 hPa 0.0 mm 0.0 mm/hr 00:00 hrs 11.3 km/hr 3.2 km/hr 16.0 km
12/01/2014 21.0C 13.9C 16.6C 1018.2 hPa 1013.7 hPa 2.2 mm 6.4 mm/hr 08:29 hrs 11.3 km/hr 3.2 km/hr 16.2 km
13/01/2014 21.9C 14.6C 17.8C 1014.7 hPa 1011.3 hPa 0.8 mm 4.6 mm/hr 15:05 hrs 19.3 km/hr 4.8 km/hr 31.5 km
14/01/2014 21.2C 14.3C 17.0C 1020.2 hPa 1013.8 hPa 0.0 mm 0.0 mm/hr 00:00 hrs 17.7 km/hr 6.4 km/hr 47.7 km
15/01/2014 22.2C 11.3C 16.7C 1023.5 hPa 1019.8 hPa 0.0 mm 0.0 mm/hr 00:00 hrs 16.1 km/hr 3.2 km/hr 19.5 km
16/01/2014 19.7C 10.6C 15.8C 1023.2 hPa 1012.6 hPa 0.0 mm 0.0 mm/hr 00:00 hrs 12.9 km/hr 4.8 km/hr 32.8 km
17/01/2014 21.2C 15.0C 17.5C 1012.6 hPa 1007.7 hPa 2.8 mm 2.8 mm/hr 02:52 hrs 20.9 km/hr 6.4 km/hr 77.5 km
18/01/2014 21.8C 11.4C 16.6C 1018.7 hPa 1010.9 hPa 0.0 mm 0.0 mm/hr 00:00 hrs 16.1 km/hr 3.2 km/hr 29.9 km
19/01/2014 24.0C 10.6C 17.2C 1018.7 hPa 1013.0 hPa 0.0 mm 0.0 mm/hr 00:00 hrs 11.3 km/hr 3.2 km/hr 13.7 km
20/01/2014 19.6C 14.8C 16.7C 1013.7 hPa 995.9 hPa 4.6 mm 6.0 mm/hr 12:07 hrs 25.7 km/hr 8.0 km/hr 43.4 km
21/01/2014 19.7C 15.8C 17.6C 1007.9 hPa 989.8 hPa 8.6 mm 8.2 mm/hr 07:14 hrs 29.0 km/hr 6.4 km/hr 63.2 km
22/01/2014 22.1C 16.2C 18.6C 1012.2 hPa 1007.9 hPa 1.4 mm 3.4 mm/hr 05:43 hrs 19.3 km/hr 4.8 km/hr 38.4 km
23/01/2014 22.2C 14.0C 17.5C 1018.2 hPa 1012.1 hPa 0.6 mm 1.4 mm/hr 05:51 hrs 14.5 km/hr 4.8 km/hr 53.8 km
24/01/2014 22.5C 11.9C 17.0C 1021.6 hPa 1017.2 hPa 0.0 mm 0.0 mm/hr 00:00 hrs 19.3 km/hr 3.2 km/hr 21.9 km
25/01/2014 24.2C 11.3C 17.7C 1021.5 hPa 1016.6 hPa 0.0 mm 0.0 mm/hr 00:00 hrs 22.5 km/hr 4.8 km/hr 48.1 km
26/01/2014 23.1C 15.3C 18.8C 1018.1 hPa 1011.9 hPa 22.8 mm 84.0 mm/hr 17:14 hrs 19.3 km/hr 4.8 km/hr 30.1 km
27/01/2014 19.9C 10.7C 15.1C 1016.9 hPa 1014.2 hPa 0.2 mm 0.0 mm/hr 00:00 hrs 17.7 km/hr 4.8 km/hr 39.9 km
28/01/2014 21.1C 9.8C 15.5C 1019.2 hPa 1015.0 hPa 0.0 mm 0.0 mm/hr 00:00 hrs 17.7 km/hr 4.8 km/hr 27.1 km
29/01/2014 24.0C 11.3C 17.0C 1019.5 hPa 1016.9 hPa 0.0 mm 0.0 mm/hr 00:00 hrs 11.3 km/hr 3.2 km/hr 16.4 km
30/01/2014 21.1C 13.8C 17.5C 1017.9 hPa 1012.1 hPa 0.0 mm 0.0 mm/hr 00:00 hrs 16.1 km/hr 4.8 km/hr 31.0 km
Back to top 31/01/2014 25.3C 12.7C 18.3C 1013.3 hPa 1007.5 hPa 0.0 mm 0.0 mm/hr 00:00 hrs 17.7 km/hr 4.8 km/hr 26.9 km
Tabled Data - scroll down 2013 Temperature Pressure Rain Wind
for earlier years Maximum Minimum Average Maximum Minimum Day Total Maximum Rain Rate High Gust Highest Av Run
C C C hPa hPa mm mm/hr time km/h km/h km
01/01/2013 22.9C 10.9C 16.4C 1022.2 hPa 1019.2 hPa 0.0 mm 0.0 mm/hr 00:00 hrs 12.9 km/hr 3.2 km/hr 22.3 km
02/01/2013 23.6C 12.1C 18.0C 1020.1 hPa 1011.4 hPa 0.0 mm 0.0 mm/hr 00:00 hrs 17.7 km/hr 4.8 km/hr 28.3 km
03/01/2013 17.6C 10.6C 15.2C 1012.4 hPa 1008.2 hPa 6.6 mm 4.2 mm/hr 06:53 hrs 12.9 km/hr 4.8 km/hr 9.5 km
04/01/2013 20.3C 9.6C 14.4C 1013.5 hPa 1010.0 hPa 0.6 mm 0.8 mm/hr 04:52 hrs 14.5 km/hr 4.8 km/hr 40.4 km
05/01/2013 23.7C 11.9C 17.4C 1015.2 hPa 1012.8 hPa 0.0 mm 0.0 mm/hr 00:00 hrs 11.3 km/hr 4.8 km/hr 21.6 km
06/01/2013 26.9C 12.4C 18.9C 1013.3 hPa 1002.5 hPa 0.0 mm 0.0 mm/hr 00:00 hrs 9.7 km/hr 3.2 km/hr 16.4 km
07/01/2013 21.1C 15.2C 17.9C 1005.0 hPa 1000.2 hPa 0.0 mm 0.0 mm/hr 00:00 hrs 24.1 km/hr 4.8 km/hr 54.6 km
08/01/2013 22.1C 15.0C 17.8C 1012.2 hPa 1003.9 hPa 0.0 mm 0.0 mm/hr 00:00 hrs 20.9 km/hr 6.4 km/hr 60.5 km
09/01/2013 27.4C 13.8C 20.0C 1014.6 hPa 1011.8 hPa 0.0 mm 0.0 mm/hr 00:00 hrs 12.9 km/hr 4.8 km/hr 22.2 km
10/01/2013 26.2C 15.1C 20.0C 1017.9 hPa 1014.2 hPa 0.0 mm 0.0 mm/hr 00:00 hrs 12.9 km/hr 4.8 km/hr 13.1 km
11/01/2013 26.2C 15.9C 20.8C 1018.6 hPa 1016.2 hPa 0.0 mm 0.0 mm/hr 00:00 hrs 11.3 km/hr 3.2 km/hr 17.8 km
12/01/2013 25.8C 18.4C 21.0C 1018.5 hPa 1015.4 hPa 0.2 mm 0.0 mm/hr 00:00 hrs 16.1 km/hr 3.2 km/hr 7.6 km
13/01/2013 26.8C 17.9C 21.0C 1016.7 hPa 1010.3 hPa 0.2 mm 0.0 mm/hr 00:00 hrs 11.3 km/hr 3.2 km/hr 13.4 km
14/01/2013 20.4C 17.6C 19.2C 1010.7 hPa 1004.7 hPa 0.2 mm 0.0 mm/hr 00:00 hrs 17.7 km/hr 3.2 km/hr 25.6 km
15/01/2013 22.8C 14.8C 17.2C 1008.0 hPa 1001.8 hPa 2.6 mm 7.8 mm/hr 07:51 hrs 30.6 km/hr 8.0 km/hr 53.0 km
16/01/2013 21.4C 13.7C 17.0C 1009.3 hPa 1006.8 hPa 0.6 mm 0.0 mm/hr 00:00 hrs 16.1 km/hr 3.2 km/hr 40.9 km
17/01/2013 21.1C 13.1C 16.0C 1007.5 hPa 1002.0 hPa 4.6 mm 27.8 mm/hr 16:58 hrs 17.7 km/hr 4.8 km/hr 39.9 km
18/01/2013 21.6C 11.4C 16.0C 1010.8 hPa 1004.6 hPa 0.0 mm 0.0 mm/hr 00:00 hrs 20.9 km/hr 4.8 km/hr 46.7 km
19/01/2013 21.9C 10.3C 16.1C 1010.9 hPa 1008.7 hPa 0.0 mm 0.0 mm/hr 00:00 hrs 16.1 km/hr 3.2 km/hr 25.6 km
20/01/2013 22.3C 14.9C 17.9C 1011.6 hPa 1007.1 hPa 3.6 mm 3.0 mm/hr 10:14 hrs 14.5 km/hr 4.8 km/hr 44.2 km
21/01/2013 22.0C 13.5C 17.6C 1018.2 hPa 1010.7 hPa 0.0 mm 0.0 mm/hr 00:00 hrs 14.5 km/hr 3.2 km/hr 33.2 km
22/01/2013 25.1C 13.3C 19.1C 1024.5 hPa 1018.0 hPa 0.0 mm 0.0 mm/hr 00:00 hrs 20.9 km/hr 6.4 km/hr 56.4 km
23/01/2013 25.4C 16.7C 19.8C 1025.4 hPa 1022.0 hPa 0.0 mm 0.0 mm/hr 00:00 hrs 17.7 km/hr 4.8 km/hr 33.3 km
24/01/2013 24.5C 14.8C 19.4C 1024.6 hPa 1022.2 hPa 0.0 mm 0.0 mm/hr 00:00 hrs 8.0 km/hr 3.2 km/hr 8.0 km
25/01/2013 26.1C 15.6C 19.8C 1029.2 hPa 1024.2 hPa 0.0 mm 0.0 mm/hr 00:00 hrs 14.5 km/hr 4.8 km/hr 31.3 km
26/01/2013 22.8C 12.9C 17.9C 1031.1 hPa 1028.7 hPa 0.0 mm 0.0 mm/hr 00:00 hrs 16.1 km/hr 4.8 km/hr 37.6 km
27/01/2013 24.2C 13.7C 18.4C 1032.3 hPa 1029.9 hPa 0.0 mm 0.0 mm/hr 00:00 hrs 19.3 km/hr 4.8 km/hr 43.9 km
28/01/2013 24.6C 13.7C 18.5C 1032.3 hPa 1026.5 hPa 0.0 mm 0.0 mm/hr 00:00 hrs 17.7 km/hr 4.8 km/hr 31.8 km
29/01/2013 25.2C 12.3C 18.3C 1028.2 hPa 1022.5 hPa 0.0 mm 0.0 mm/hr 00:00 hrs 17.7 km/hr 3.2 km/hr 24.7 km
30/01/2013 24.7C 14.7C 19.1C 1025.3 hPa 1022.8 hPa 0.0 mm 0.0 mm/hr 00:00 hrs 22.5 km/hr 4.8 km/hr 32.7 km
Back to top 31/01/2013 25.3C 13.6C 18.7C 1025.2 hPa 1019.8 hPa 0.0 mm 0.0 mm/hr 00:00 hrs 12.9 km/hr 3.2 km/hr 20.3 km
Tabled Data - scroll down 2012 Temperature Pressure Rain Wind
for earlier years Maximum Minimum Average Maximum Minimum Day Total Maximum Rain Rate High Gust Highest Av Run
C C C hPa hPa mm mm/hr time km/h km/h km
01/01/2012 19.4C 15.8C 17.9C 1005.1 hPa 1000.0 hPa 5.2 mm 7.4 mm/hr 21:29 hrs 17.7 km/hr 5.2 km/hr 46.7 km
02/01/2012 18.9C 12.0C 16.1C 1015.0 hPa 1004.5 hPa 0.0 mm 0.0 mm/hr 00:00 hrs 17.7 km/hr 4.5 km/hr 58.9 km
03/01/2012 20.9C 11.7C 16.2C 1021.3 hPa 1014.7 hPa 1.2 mm 8.6 mm/hr 14:42 hrs 9.7 km/hr 3.6 km/hr 10.3 km
04/01/2012 22.9C 14.7C 18.4C 1021.2 hPa 1017.7 hPa 0.2 mm 0.0 mm/hr 00:00 hrs 17.7 km/hr 3.8 km/hr 17.6 km
05/01/2012 23.5C 15.1C 19.0C 1019.1 hPa 1015.0 hPa 0.0 mm 0.0 mm/hr 00:00 hrs 9.7 km/hr 3.5 km/hr 15.4 km
06/01/2012 23.2C 14.0C 18.0C 1015.8 hPa 1010.1 hPa 0.0 mm 0.0 mm/hr 00:00 hrs 9.7 km/hr 2.9 km/hr 11.1 km
07/01/2012 16.9C 14.1C 15.8C 1010.9 hPa 999.7 hPa 15.2 mm 4.8 mm/hr 19:22 hrs 20.9 km/hr 3.9 km/hr 21.3 km
08/01/2012 18.8C 14.8C 16.7C 1000.0 hPa 995.8 hPa 4.8 mm 1.2 mm/hr 00:00 hrs 22.5 km/hr 4.0 km/hr 40.2 km
09/01/2012 20.9C 15.4C 17.8C 1005.3 hPa 1000.0 hPa 1.4 mm 0.8 mm/hr 23:45 hrs 19.3 km/hr 6.1 km/hr 60.5 km
10/01/2012 19.0C 14.6C 17.1C 1007.6 hPa 1005.0 hPa 4.2 mm 8.0 mm/hr 06:41 hrs 16.1 km/hr 4.2 km/hr 36.5 km
11/01/2012 24.7C 12.5C 17.8C 1007.6 hPa 1004.1 hPa 3.2 mm 22.2 mm/hr 21:32 hrs 11.3 km/hr 3.5 km/hr 17.2 km
12/01/2012 20.7C 15.9C 18.4C 1006.1 hPa 999.8 hPa 1.0 mm 0.0 mm/hr 00:00 hrs 11.3 km/hr 3.9 km/hr 29.7 km
13/01/2012 20.9C 15.9C 17.8C 1009.6 hPa 999.3 hPa 19.0 mm 153.6 mm/hr 13:59 hrs 35.4 km/hr 6.9 km/hr 78.2 km
14/01/2012 20.3C 14.1C 16.3C 1015.1 hPa 1009.5 hPa 5.6 mm 93.0 mm/hr 10:45 hrs 12.9 km/hr 3.6 km/hr 25.3 km
15/01/2012 20.9C 13.2C 16.7C 1019.8 hPa 1014.3 hPa 0.6 mm 6.6 mm/hr 16:35 hrs 14.5 km/hr 3.6 km/hr 21.8 km
16/01/2012 21.3C 12.1C 16.1C 1027.2 hPa 1019.0 hPa 0.0 mm 0.0 mm/hr 00:00 hrs 17.7 km/hr 3.6 km/hr 24.7 km
17/01/2012 21.2C 11.3C 15.6C 1029.3 hPa 1026.4 hPa 0.8 mm 0.0 mm/hr 00:00 hrs 16.1 km/hr 4.7 km/hr 30.2 km
18/01/2012 23.4C 12.4C 17.4C 1029.4 hPa 1023.3 hPa 0.0 mm 0.0 mm/hr 00:00 hrs 9.7 km/hr 2.5 km/hr 11.8 km
19/01/2012 22.7C 12.6C 17.1C 1024.3 hPa 1016.9 hPa 0.0 mm 0.0 mm/hr 00:00 hrs 12.9 km/hr 3.2 km/hr 15.7 km
20/01/2012 21.9C 14.2C 17.6C 1018.0 hPa 1014.2 hPa 0.0 mm 0.0 mm/hr 00:00 hrs 11.3 km/hr 2.9 km/hr 19.3 km
21/01/2012 22.1C 14.7C 17.9C 1016.7 hPa 1014.7 hPa 1.2 mm 10.8 mm/hr 07:16 hrs 9.7 km/hr 2.9 km/hr 11.3 km
22/01/2012 19.6C 13.4C 16.3C 1015.6 hPa 1010.2 hPa 3.6 mm 23.0 mm/hr 20:01 hrs 12.9 km/hr 3.6 km/hr 16.5 km
23/01/2012 20.0C 10.0C 14.7C 1019.2 hPa 1012.4 hPa 0.2 mm 0.0 mm/hr 00:00 hrs 12.9 km/hr 3.8 km/hr 30.1 km
24/01/2012 22.3C 9.2C 15.4C 1021.1 hPa 1018.5 hPa 0.0 mm 0.0 mm/hr 00:00 hrs 14.5 km/hr 3.9 km/hr 24.9 km
25/01/2012 22.6C 12.2C 16.7C 1019.8 hPa 1016.7 hPa 0.0 mm 0.0 mm/hr 00:00 hrs 14.5 km/hr 3.8 km/hr 25.6 km
26/01/2012 22.2C 12.2C 16.6C 1018.4 hPa 1012.7 hPa 0.0 mm 0.0 mm/hr 00:00 hrs 17.7 km/hr 3.5 km/hr 20.1 km
27/01/2012 18.6C 12.2C 15.6C 1012.7 hPa 1005.9 hPa 9.2 mm 27.0 mm/hr 13:20 hrs 17.7 km/hr 4.3 km/hr 45.7 km
28/01/2012 19.4C 10.5C 14.8C 1015.2 hPa 1010.6 hPa 0.0 mm 0.0 mm/hr 00:00 hrs 12.9 km/hr 11.3 km/hr 35.5 km
29/01/2012 21.2C 13.9C 17.0C 1017.1 hPa 1013.5 hPa 0.2 mm 0.0 mm/hr 00:00 hrs 19.3 km/hr 4.7 km/hr 51.2 km
30/01/2012 24.6C 13.2C 18.7C 1021.3 hPa 1016.9 hPa 0.0 mm 0.0 mm/hr 00:00 hrs 12.9 km/hr 4.3 km/hr 36.6 km
Back to top 31/01/2012 23.9C 13.7C 18.5C 1021.1 hPa 1015.5 hPa 0.0 mm 0.0 mm/hr 00:00 hrs 12.9 km/hr 3.3 km/hr 16.4 km
2011 Temperature Pressure Rain Wind
Maximum Minimum Average Maximum Minimum Day Total Maximum Rain Rate High Gust Highest Av Run
C C C hPa hPa mm mm/hr time km/h km/h km
01/01/2011 21.9C 15.1C 18.0C 1020.2 hPa 1014.1 hPa 0.0 mm 0.0 mm/hr 00:00 hrs 12.9 km/hr 5.4 km/hr 56.8 km
02/01/2011 26.2C 13.3C 18.7C 1021.9 hPa 1019.6 hPa 0.0 mm 0.0 mm/hr 00:00 hrs 9.7 km/hr 3.4 km/hr 14.1 km
03/01/2011 26.2C 13.9C 19.0C 1021.3 hPa 1017.1 hPa 0.0 mm 0.0 mm/hr 00:00 hrs 12.9 km/hr 3.7 km/hr 17.0 km
04/01/2011 25.1C 15.2C 19.6C 1018.1 hPa 1013.9 hPa 0.0 mm 0.0 mm/hr 00:00 hrs 8.0 km/hr 3.0 km/hr 11.0 km
05/01/2011 24.2C 15.4C 19.6C 1015.9 hPa 1012.8 hPa 0.0 mm 0.0 mm/hr 00:00 hrs 19.3 km/hr 6.1 km/hr 66.4 km
06/01/2011 25.3C 18.6C 20.9C 1014.2 hPa 1012.2 hPa 0.2 mm 0.0 mm/hr 00:00 hrs 12.9 km/hr 5.3 km/hr 75.7 km
07/01/2011 28.4C 18.7C 22.1C 1015.9 hPa 1013.6 hPa 0.0 mm 0.0 mm/hr 00:00 hrs 12.9 km/hr 3.7 km/hr 23.3 km
08/01/2011 24.7C 13.9C 19.4C 1019.7 hPa 1015.3 hPa 0.0 mm 0.0 mm/hr 00:00 hrs 12.9 km/hr 3.6 km/hr 21.8 km
09/01/2011 22.9C 15.9C 18.8C 1022.2 hPa 1019.1 hPa 0.0 mm 0.0 mm/hr 00:00 hrs 11.3 km/hr 3.9 km/hr 40.3 km
10/01/2011 23.8C 14.6C 18.3C 1022.2 hPa 1017.4 hPa 0.0 mm 0.0 mm/hr 00:00 hrs 8.0 km/hr 2.7 km/hr 11.2 km
11/01/2011 24.1C 13.7C 17.8C 1020.6 hPa 1017.8 hPa 0.0 mm 0.0 mm/hr 00:00 hrs 8.0 km/hr 2.7 km/hr 10.1 km
12/01/2011 23.5C 14.2C 18.3C 1020.0 hPa 1015.2 hPa 0.0 mm 0.0 mm/hr 00:00 hrs 19.3 km/hr 5.8 km/hr 37.2 km
13/01/2011 23.6C 13.6C 18.4C 1017.8 hPa 1013.9 hPa 0.0 mm 0.0 mm/hr 00:00 hrs 11.3 km/hr 4.0 km/hr 23.2 km
14/01/2011 25.1C 13.0C 18.6C 1022.5 hPa 1017.2 hPa 0.0 mm 0.0 mm/hr 00:00 hrs 9.7 km/hr 2.7 km/hr 11.5 km
15/01/2011 25.6C 14.4C 19.0C 1022.4 hPa 1016.5 hPa 0.0 mm 0.0 mm/hr 00:00 hrs 11.3 km/hr 4.4 km/hr 25.3 km
16/01/2011 26.5C 13.0C 18.7C 1017.1 hPa 1009.4 hPa 0.0 mm 0.0 mm/hr 00:00 hrs 16.1 km/hr 5.2 km/hr 17.4 km
17/01/2011 23.6C 14.9C 18.8C 1011.8 hPa 1008.8 hPa 5.6 mm 18.8 mm/hr 15:47 hrs 11.3 km/hr 4.6 km/hr 42.5 km
18/01/2011 26.7C 20.6C 22.3C 1009.2 hPa 996.2 hPa 3.4 mm 5.6 mm/hr 18:13 hrs 24.1 km/hr 9.8 km/hr 89.4 km
19/01/2011 22.6C 14.9C 19.7C 1008.7 hPa 996.4 hPa 6.6 mm 6.6 mm/hr 05:31 hrs 19.3 km/hr 6.1 km/hr 66.9 km
20/01/2011 24.7C 14.3C 19.0C 1015.0 hPa 1008.6 hPa 0.0 mm 0.0 mm/hr 00:00 hrs 12.9 km/hr 4.4 km/hr 26.7 km
21/01/2011 23.2C 14.9C 18.3C 1016.0 hPa 1013.2 hPa 2.4 mm 6.4 mm/hr 03:37 hrs 16.1 km/hr 6.9 km/hr 50.1 km
22/01/2011 18.6C 14.8C 16.5C 1014.0 hPa 1006.5 hPa 15.8 mm 5.0 mm/hr 23:25 hrs 9.7 km/hr 2.7 km/hr 12.9 km
23/01/2011 22.3C 14.9C 18.7C 1006.7 hPa 987.9 hPa 36.8 mm 29.0 mm/hr 06:45 hrs 27.4 km/hr 8.7 km/hr 103.5 km
24/01/2011 20.7C 14.2C 17.7C 1010.7 hPa 987.3 hPa 5.6 mm 4.2 mm/hr 07:07 hrs 25.7 km/hr 8.7 km/hr 107.2 km
25/01/2011 23.1C 14.4C 18.0C 1018.8 hPa 1010.7 hPa 0.0 mm 0.0 mm/hr 00:00 hrs 9.7 km/hr 3.3 km/hr 21.3 km
26/01/2011 26.1C 14.1C 19.0C 1020.2 hPa 1017.4 hPa 0.0 mm 0.0 mm/hr 00:00 hrs 9.7 km/hr 3.8 km/hr 15.9 km
27/01/2011 25.2C 14.1C 19.1C 1019.1 hPa 1014.8 hPa 0.0 mm 0.0 mm/hr 00:00 hrs 11.3 km/hr 4.1 km/hr 22.0 km
28/01/2011 21.2C 15.8C 18.3C 1016.4 hPa 1002.6 hPa 35.2 mm 17.6 mm/hr 23:45 hrs 16.1 km/hr 6.8 km/hr 63.2 km
29/01/2011 21.6C 13.4C 18.4C 1017.4 hPa 995.2 hPa 23.0 mm 18.2 mm/hr 00:29 hrs 22.5 km/hr 8.0 km/hr 94.4 km
30/01/2011 22.4C 13.4C 17.4C 1021.5 hPa 1017.3 hPa 0.0 mm 0.0 mm/hr 00:00 hrs 14.5 km/hr 6.1 km/hr 38.5 km
Back to top 31/01/2011 22.6C 15.6C 18.7C 1019.4 hPa 1015.2 hPa 0.0 mm 0.0 mm/hr 00:00 hrs 24.1 km/hr 5.9 km/hr 64.6 km
2010 Temperature Pressure Rain Wind
Maximum Minimum Average Maximum Minimum Day Total Maximum Rain Rate High Gust Highest Av Run
C C C hPa hPa mm mm/hr time km/h km/h km
01/01/2010 21.1C 12.1C 16.6C 1022.0 hPa 1021.0 hPa 0.0 mm          
02/01/2010 22.5C 11.2C 16.9C 1019.0 hPa 1018.0 hPa 0.0 mm          
03/01/2010 22.8C 13.6C 18.2C 1016.0 hPa 1012.0 hPa 0.0 mm          
04/01/2010 19.6C 14.9C 17.3C 1013.0 hPa 1008.0 hPa 7.2 mm          
05/01/2010 20.4C 12.4C 16.4C 1020.0 hPa 1018.0 hPa 0.0 mm          
06/01/2010 22.4C 10.4C 16.4C 1021.0 hPa 1021.0 hPa 0.0 mm          
07/01/2010 22.8C 12.2C 17.5C 1019.0 hPa 1018.0 hPa 0.0 mm          
08/01/2010 19.7C 10.8C 15.3C 1018.0 hPa 1016.0 hPa 1.3 mm          
09/01/2010 23.0C 9.4C 16.2C 1020.0 hPa 1018.0 hPa 0.0 mm          
10/01/2010 22.6C 10.0C 16.3C 1010.0 hPa 1006.0 hPa 0.0 mm          
11/01/2010 19.5C 14.0C 16.8C 1004.0 hPa 1003.0 hPa 11.2 mm          
12/01/2010 21.0C 13.0C 17.0C 1009.0 hPa 1005.0 hPa 10.8 mm          
13/01/2010 20.0C 13.0C 16.5C 1012.0 hPa 1011.0 hPa 0.0 mm          
14/01/2010 23.0C 16.0C 19.5C 1011.0 hPa 1009.0 hPa 0.0 mm          
15/01/2010 25.5C 17.0C 21.3C 1009.0 hPa 1003.0 hPa 0.0 mm          
16/01/2010 25.9C 16.3C 21.1C 1007.0 hPa 1005.0 hPa 0.0 mm          
17/01/2010 22.0C 15.2C 18.6C 1008.0 hPa 1007.0 hPa 0.0 mm          
18/01/2010 23.4C 15.6C 19.5C 1010.0 hPa 1009.0 hPa 0.0 mm          
19/01/2010 25.5C 14.1C 20.5C 1015.0 hPa 1014.0 hPa 0.0 mm 53.6 mm/hr 18:23 hrs 6.4 km/hr   0.3 km
20/01/2010 23.2C 17.0C 19.8C 1014.7 hPa 1004.4 hPa 0.0 mm 0.0 mm/hr 00:00 hrs 14.5 km/hr   37.4 km
21/01/2010 22.5C 17.5C 19.4C 1005.4 hPa 997.4 hPa 9.0 mm 74.8 mm/hr 21:02 hrs 22.5 km/hr   47.3 km
22/01/2010 20.3C 14.7C 17.3C 1003.8 hPa 998.8 hPa 4.2 mm 53.8 mm/hr 23:01 hrs 19.3 km/hr   97.3 km
23/01/2010 19.0C 14.9C 16.5C 1006.6 hPa 1002.2 hPa 12.2 mm 57.4 mm/hr 01:02 hrs 12.9 km/hr   62.6 km
24/01/2010 19.7C 13.6C 16.6C 1013.1 hPa 1006.0 hPa 1.4 mm 19.8 mm/hr 04:20 hrs 12.9 km/hr   43.5 km
25/01/2010 25.8C 13.6C 19.1C 1016.8 hPa 1012.4 hPa 0.0 mm 0.0 mm/hr 00:00 hrs 9.7 km/hr   6.8 km
26/01/2010 24.8C 15.9C 19.9C 1020.1 hPa 1016.2 hPa 0.0 mm 0.0 mm/hr 00:00 hrs 11.3 km/hr   23.7 km
27/01/2010 25.9C 15.4C 19.9C 1019.9 hPa 1016.7 hPa 0.0 mm 0.0 mm/hr 00:00 hrs 8.0 km/hr   9.8 km
28/01/2010 27.3C 15.4C 20.3C 1019.2 hPa 1016.0 hPa 0.0 mm 0.0 mm/hr 00:00 hrs 8.0 km/hr   7.2 km
29/01/2010 26.3C 15.2C 19.8C 1018.8 hPa 1015.8 hPa 0.0 mm 0.0 mm/hr 00:00 hrs 8.0 km/hr 2.9 km/hr 13.6 km
30/01/2010 28.0C 15.5C 20.5C 1017.8 hPa 1012.0 hPa 0.0 mm 0.0 mm/hr 00:00 hrs 9.7 km/hr 4.4 km/hr 14.4 km
Back to top 31/01/2010 22.2C 17.7C 19.6C 1013.3 hPa 1007.9 hPa 8.8 mm 46.6 mm/hr 15:39 hrs 6.4 km/hr 3.2 km/hr 7.5 km
2009 Temperature Pressure Rain Wind
Maximum Minimum Average Maximum Minimum Day Total Maximum Rain Rate High Gust Highest Av Run
C C C hPa hPa mm mm/hr time km/h km/h km
01/01/2009 25.5C 16.3C 20.9C 1014.0 hPa 1011.0 hPa 1.3 mm          
02/01/2009 21.7C 17.0C 19.4C 1016.0 hPa 1015.0 hPa 7.2 mm          
03/01/2009 22.8C 18.7C 20.8C 1015.0 hPa 1015.0 hPa 5.4 mm          
04/01/2009 22.2C 11.8C 17.0C 1025.0 hPa 1019.0 hPa 0.0 mm          
05/01/2009 23.0C 11.5C 17.3C 1022.0 hPa 1020.0 hPa 0.0 mm          
06/01/2009 24.1C 13.2C 18.7C 1019.0 hPa 1018.0 hPa 0.0 mm          
07/01/2009 24.6C 13.0C 18.8C 1018.0 hPa 1017.0 hPa 0.0 mm          
08/01/2009 27.2C 15.9C 21.6C 1018.0 hPa 1016.0 hPa 0.0 mm          
09/01/2009 24.6C 17.8C 21.2C 1014.0 hPa 1011.0 hPa 0.0 mm          
10/01/2009 22.0C 14.0C 18.0C 1011.0 hPa 1011.0 hPa 0.0 mm          
11/01/2009 22.0C 16.0C 19.0C 1012.0 hPa 1010.0 hPa 3.1 mm          
12/01/2009 26.0C 15.5C 20.8C 1013.0 hPa 1010.0 hPa 0.0 mm          
13/01/2009 23.0C 16.0C 19.5C 1010.0 hPa 1009.0 hPa 0.0 mm          
14/01/2009 27.0C 16.0C 21.5C 1013.0 hPa 1011.0 hPa 0.0 mm          
15/01/2009 26.5C 14.0C 20.3C 1012.0 hPa 1012.0 hPa 0.0 mm          
16/01/2009 25.0C 16.0C 20.5C 1012.0 hPa 1011.0 hPa 0.0 mm          
17/01/2009 22.4C 15.5C 19.0C 1009.0 hPa 1008.0 hPa 0.0 mm          
18/01/2009 21.5C 14.6C 18.1C 1007.0 hPa 1006.0 hPa 8.5 mm          
19/01/2009 20.6C 13.9C 17.3C 1013.0 hPa 1010.0 hPa 4.5 mm          
20/01/2009 16.9C 13.3C 15.1C 1020.0 hPa 1017.0 hPa 0.0 mm          
21/01/2009 22.5C 13.6C 18.1C 1025.0 hPa 1024.0 hPa 0.0 mm          
22/01/2009 23.0C 13.8C 18.4C 1027.0 hPa 1025.0 hPa 0.0 mm          
23/01/2009 23.1C 15.0C 19.1C 1026.0 hPa 1024.0 hPa 0.0 mm          
24/01/2009 25.8C 14.8C 20.3C 1024.0 hPa 1022.0 hPa 0.0 mm          
25/01/2009 26.9C 14.7C 20.8C 1021.0 hPa 1020.0 hPa 0.0 mm          
26/01/2009 25.5C 16.7C 21.1C 1018.0 hPa 1015.0 hPa 0.0 mm          
27/01/2009 21.6C 18.4C 20.0C 1013.0 hPa 1010.0 hPa 3.6 mm          
28/01/2009 21.8C 14.3C 18.1C 1018.0 hPa 1016.0 hPa 0.0 mm          
29/01/2009 24.1C 15.2C 19.7C 1021.0 hPa 1021.0 hPa 0.0 mm          
30/01/2009 21.8C 15.6C 18.7C 1020.0 hPa 1020.0 hPa 0.0 mm          
Back to top 31/01/2009 21.9C 16.9C 19.4C 1020.0 hPa 1017.0 hPa 0.0 mm          
2008 Temperature Pressure Rain Wind
Maximum Minimum Average Maximum Minimum Day Total Maximum Rain Rate High Gust Highest Av Run
C C C hPa hPa mm mm/hr time km/h km/h km
01/01/2008 25.2C 14.7C 20.0C 1023.0 hPa 1022.0 hPa 0.0 mm          
02/01/2008 24.4C 15.2C 19.8C 1023.0 hPa 1022.0 hPa 0.0 mm          
03/01/2008 24.8C 14.8C 19.8C 1021.0 hPa 1021.0 hPa 0.0 mm          
04/01/2008 24.0C 15.4C 19.7C 1023.0 hPa 1021.0 hPa 0.0 mm          
05/01/2008 21.7C 16.9C 19.3C 1025.0 hPa 1024.0 hPa 0.0 mm          
06/01/2008 24.4C 17.1C 20.8C 1024.0 hPa 1023.0 hPa 0.0 mm          
07/01/2008 25.6C 17.1C 21.4C 1021.0 hPa 1017.0 hPa 0.0 mm          
08/01/2008 22.2C 19.2C 20.7C 1015.0 hPa 1013.0 hPa 0.0 mm          
09/01/2008 21.5C 16.8C 19.2C 1012.0 hPa 1012.0 hPa 4.5 mm          
10/01/2008 25.6C 17.0C 21.3C 1015.0 hPa 1015.0 hPa 2.2 mm          
11/01/2008 24.7C 15.0C 19.9C 1023.0 hPa 1021.0 hPa 0.0 mm          
12/01/2008 23.6C 15.8C 19.7C 1024.0 hPa 1024.0 hPa 0.0 mm          
13/01/2008 23.1C 13.3C 18.2C 1025.0 hPa 1025.0 hPa 0.0 mm          
14/01/2008 25.4C 14.6C 20.0C 1024.0 hPa 1024.0 hPa 0.0 mm          
15/01/2008 26.2C 16.1C 21.2C 1023.0 hPa 1023.0 hPa 0.0 mm          
16/01/2008 25.0C 18.9C 22.0C 1022.0 hPa 1022.0 hPa 0.0 mm          
17/01/2008 26.0C 16.9C 21.5C 1020.0 hPa 1020.0 hPa 0.0 mm          
18/01/2008 23.0C 16.8C 19.9C 1018.0 hPa 1018.0 hPa 0.0 mm          
19/01/2008 28.7C 16.8C 22.8C 1018.0 hPa 1017.0 hPa 0.0 mm          
20/01/2008 25.0C 16.0C 20.5C 1018.0 hPa 1013.0 hPa 1.5 mm          
21/01/2008 21.5C 19.5C 20.5C 1010.0 hPa 1009.0 hPa 4.5 mm          
22/01/2008 23.4C 20.1C 21.8C 1012.0 hPa 1009.0 hPa 2.2 mm          
23/01/2008 21.4C 18.7C 20.1C 1017.0 hPa 1014.0 hPa 1.8 mm          
24/01/2008 25.3C 15.0C 20.2C 1020.0 hPa 1019.0 hPa 0.0 mm          
25/01/2008 25.9C 16.3C 21.1C 1019.0 hPa 1019.0 hPa 0.0 mm          
26/01/2008 25.5C 16.0C 20.8C 1018.0 hPa 1015.0 hPa 0.0 mm          
27/01/2008 27.1C 16.3C 21.7C 1014.0 hPa 1013.0 hPa 0.0 mm          
28/01/2008 24.9C 17.0C 21.0C 1018.0 hPa 1016.0 hPa 0.0 mm          
29/01/2008 24.3C 16.1C 20.2C 1020.0 hPa 1019.0 hPa 0.0 mm          
30/01/2008 26.8C 18.5C 22.7C 1022.0 hPa 1020.0 hPa 0.0 mm          
Back to top 31/01/2008 24.8C 18.3C 21.6C 1024.0 hPa 1023.0 hPa 0.0 mm